Julián Romano

Chief Scout - All Boys
3 Dec 2028
Sunday
Process

Personality

Adaptability (2) Ambition (6) Controversy (9) Loyalty (4) Pressure (18) Professionalism (15) Sportsmanship (8) Temperament (19)

Profile

Coaching Style Democratic
License National B
Determination 4
Man Management 5
Motivating 3
Discipline 6
Job Satisfaction
100%
Fatigue
0%
Role Chief Scout
Wage 6.2K p/w
Contract 14.03.2029

Performance

Behaviour Good
Training Effectiveness
14%
Player Development
35%
Injury Prevention
35%
Tactical Implementation
10%

Recent Events

Assessed a player 7d ago
Assessed a player 7d ago
Assessed a player 7d ago
Assessed a player 14d ago
Assessed a player 14d ago
Assessed a player 14d ago
Assessed a player 14d ago
Assessed a player 14d ago

Currently Monitoring

243
Player Club Status Ability Confidence Watched Last Observed Latest Vote
Diego Gaitán Maipú Active 124 / 125 40% 6 29.11.2028 -
Marcos Enrique Tristán Suárez Active 115 / 126 40% 2 29.11.2028 -
Abel Bustos Racing Active 122 / 129 40% 2 26.11.2028 -
Tobías Leiva Estudiantes Active 111 / 116 40% 3 25.11.2028 -
Franco Vedoya Central Norte Active 112 / 128 40% 5 25.11.2028 -
Facundo Taborda Racing Active 104 / 105 40% 4 21.11.2028 -
Franco Bustamante Almagro Active 96 / 90 40% 2 21.11.2028 -
Erik de los Santos Racing Active 122 / 115 40% 3 20.11.2028 -
Matías Sosa Arsenal Active 107 / 107 40% 2 20.11.2028 -
Enzo González Defensores Active 112 / 115 40% 4 18.11.2028 -
Tomás Ferreyra Defensores Unidos Active 120 / 113 40% 3 18.11.2028 -
José Barreto Quilmes Active 120 / 124 40% 3 16.11.2028 -
Matías Bergara Nueva Chicago Active 115 / 106 40% 3 16.11.2028 -
Rodrigo Ramírez Nueva Chicago Active 114 / 123 40% 2 15.11.2028 -
Agustín Pereira Albion Active 120 / 120 40% 3 15.11.2028 -
Gerónimo Tomasetti Temperley Active 117 / 118 40% 4 14.11.2028 -
Santiago Sala Güemes Active 120 / 119 40% 8 14.11.2028 -
Enderson Torrealba Estudiantes de Caracas Active 99 / 83 40% 3 13.11.2028 -
Valentín Amoroso Plaza Colonia Active 112 / 95 40% 1 13.11.2028 -
Gonzalo Flores Almirante Brown Active 111 / 116 40% 2 08.11.2028 -
Nicolás Mosca Atlanta Active 111 / 110 40% 2 08.11.2028 -
Camilo Machado Madryn Active 113 / 101 40% 7 07.11.2028 -
Carlos Cantillo Jaguares Active 121 / 124 40% 1 07.11.2028 -
Brandon Mejía Fortaleza CEIF Active 100 / 100 40% 3 03.11.2028 -
Tomás Castro Ponce Atlanta Active 113 / 111 40% 1 02.11.2028 -
Dylan Cabral Arsenal Active 105 / 96 40% 1 02.11.2028 -
Sneider Navarro Metropolitanos Active 102 / 101 40% 5 31.10.2028 -
Federico Versaci Talleres Active 126 / 117 40% 6 30.10.2028 -
Gonzalo Trindade Nueva Chicago Active 111 / 104 40% 1 30.10.2028 -
Francisco Ginella Albion Active 105 / 118 40% 3 29.10.2028 -
Alejo Dramisino Atlanta Active 112 / 114 40% 4 28.10.2028 -
Tiago Taobas Central Norte Active 102 / 92 40% 1 27.10.2028 -
Enzo Silcan Almagro Active 118 / 108 40% 4 25.10.2028 -
Kevin Colli Tristán Suárez Active 109 / 105 40% 1 25.10.2028 -
Julián Brea Cobresal Active 106 / 110 40% 2 24.10.2028 -
Renzo Reynaga Patronato Active 117 / 106 40% 3 22.10.2028 -
Juan Camilo Quiñonez Llaneros Active 103 / 90 40% 2 21.10.2028 -
Ramiro Makarte Alvarado Active 103 / 113 40% 1 21.10.2028 -
Eyder Restrepo Llaneros Active 109 / 96 40% 3 18.10.2028 -
Marco Miori Alvarado Active 120 / 99 40% 5 18.10.2028 -
Martín Campos Ferro Carril Oeste Active 131 / 119 40% 4 17.10.2028 -
Jhon Solís Fortaleza CEIF Active 107 / 114 40% 2 17.10.2028 -
Marcelo Eggel Maipú Active 103 / 117 40% 1 15.10.2028 -
Antonio Napolitano Agropecuario Argentino Active 126 / 120 40% 2 14.10.2028 -
Pedro Sanz Central Norte Active 115 / 107 40% 2 14.10.2028 -
Augusto Berrondo Tristán Suárez Active 120 / 121 40% 5 13.10.2028 -
Thiago Lauro Morón Active 115 / 130 40% 3 13.10.2028 -
Nicolás Retamar Ferro Carril Oeste Active 119 / 122 40% 4 09.10.2028 -
Miguel Ceccotti Güemes Active 105 / 115 40% 2 09.10.2028 -
Luis Olivera Defensores Unidos Active 108 / 121 40% 2 08.10.2028 -
Simón Contreras Iquique Active 108 / 94 40% 2 07.10.2028 -
David Veliz Güemes Active 120 / 122 40% 3 06.10.2028 -
Román Gamarra San Telmo Active 109 / 111 40% 2 02.10.2028 -
José Cadenas Zulia Active 88 / 105 40% 1 02.10.2028 -
Franco Díaz Temperley Active 133 / 135 40% 2 01.10.2028 -
Nicolás Medina Atlanta Active 121 / 99 40% 1 30.09.2028 -
Nahuel Albano La Luz Active 97 / 93 40% 2 29.09.2028 -
Bruno Pérez Madryn Active 113 / 106 40% 2 23.09.2028 -
Agustín Dávila Cerro Largo Active 90 / 97 40% 3 18.09.2028 -
Mauro Peinipil Colón Active 114 / 126 40% 1 18.09.2028 -
Kevin Díaz Trujillanos Active 94 / 84 40% 2 16.09.2028 -
Agustín Benítez Defensores Active 125 / 106 40% 1 16.09.2028 -
Jerónimo Porto Lapegüe San Telmo Active 119 / 114 40% 2 14.09.2028 -
Franco Ayunta Temperley Active 117 / 98 40% 2 09.09.2028 -
Rodrigo Mosqueda River Plate Active 105 / 109 40% 2 08.09.2028 -
Enzo Hoyos Ferro Carril Oeste Active 110 / 115 40% 2 07.09.2028 -
Braian Aranda Agropecuario Argentino Active 105 / 112 40% 1 03.09.2028 -
Álex Perdomo Defensor Sporting Active 97 / 108 40% 3 30.08.2028 -
Nahuel Gómez Oriental Active 94 / 86 40% 3 25.08.2028 -
Lucas Arzamendia Atenas Active 98 / 94 40% 2 25.08.2028 -
Lautaro Gandulfo Central Espanol Active 95 / 103 40% 2 23.08.2028 -
Juan Sebastián Herrera Deportivo La Guaira Active 112 / 109 40% 1 20.08.2028 -
Gastón Moreyra Almirante Brown Active 110 / 118 40% 4 18.08.2028 -
Juan Yangali San Telmo Active 122 / 113 40% 1 13.08.2028 -
Tobías Salas Real Cartagena Active 98 / 95 40% 1 13.08.2028 -
Facundo Villarreal Los Andes Active 115 / 91 40% 2 11.08.2028 -
Samuel Bello Patriotas Active 95 / 93 40% 1 09.08.2028 -
Carlos Airala Albion Active 112 / 103 40% 4 06.08.2028 -
Owen Falconis Cerrito Active 105 / 93 40% 5 05.08.2028 -
Julián Vera Maipú Active 109 / 123 40% 3 05.08.2028 -
Gustavo Viera Cerro Largo Active 102 / 103 40% 1 04.08.2028 -
Leison Cuero Colon Active 87 / 86 40% 1 31.07.2028 -
Nazareno Petrecca Nueva Chicago Active 101 / 93 40% 1 28.07.2028 -
Hervin Goyes Deportivo Pasto Active 108 / 118 40% 1 27.07.2028 -
Jonathan Baeza La Luz Active 106 / 91 40% 1 25.07.2028 -
Facundo Barreto Cerrito Active 93 / 104 40% 1 13.07.2028 -
Siro Rosané Estudiantes Active 121 / 122 40% 1 10.07.2028 -
Martín García Atlanta Active 115 / 124 40% 1 10.07.2028 -
Ramón González Almirante Brown Active 106 / 116 40% 1 09.07.2028 -
Pedro Souto Temperley Active 109 / 130 40% 1 07.07.2028 -
Alan Olinick Racing Active 124 / 111 40% 1 03.07.2028 -
Richard Castillo Valledupar Active 73 / 81 40% 2 02.07.2028 -
Levit Béjar Universidad de Concepcion Active 98 / 90 40% 1 30.06.2028 -
Brayan Castro Bogota Active 104 / 84 40% 1 29.06.2028 -
Esteban de Lima Tacuarembo Active 86 / 91 40% 1 27.06.2028 -
Johan Martínez Leones Active 88 / 97 40% 1 26.06.2028 -
Sebastián Díaz Bogota Active 102 / 93 40% 1 24.06.2028 -
Lucas Chiozza Alvarado Active 116 / 114 40% 1 22.06.2028 -
Román Gutiérrez Albion Active 93 / 91 40% 1 21.06.2028 -
Andrés Dieppa Bogota Active 90 / 90 40% 2 13.06.2028 -
Franco Bigo 12 de Octubre Active 95 / 85 40% 1 12.06.2028 -
Lucas López Iglesias 12 de Octubre Active 87 / 102 40% 1 12.06.2028 -
Tobías Correa Uruguay Montevideo Active 108 / 97 40% 2 07.06.2028 -
Iván Balanta Barranquilla Active 87 / 93 40% 1 07.06.2028 -
Federico Bisanz Atlanta Active 111 / 121 40% 1 28.12.2027 -
Christian Bravo Huachipato Active 84 / 88 40% 2 14.12.2027 -
Oscar García Leon Active 90 / 90 40% 2 12.12.2027 -
Mauro Rodas Sportivo Trinidense Active 96 / 94 40% 2 10.12.2027 -
Lusiel Gómez La Luz Active 91 / 100 40% 1 10.12.2027 -
Michael Barragán Union Magdalena Active 105 / 90 40% 3 07.12.2027 -
Joaquín Bigo Tristán Suárez Active 110 / 110 40% 1 07.12.2027 -
Cristian Santander Barranquilla Active 117 / 116 40% 4 06.12.2027 -
Lautaro Herrera Estudiantes Active 109 / 101 40% 3 06.12.2027 -
Diego Carreño O'Higgins Active 106 / 88 40% 6 05.12.2027 -
Elías Villar Nacional Active 86 / 101 40% 3 03.12.2027 -
Santiago Direnna Miramar Misiones Active 81 / 71 40% 5 03.12.2027 -
Íker Blanco Deportivo Cali Active 98 / 109 40% 1 01.12.2027 -
Sebastián Alzate Once Caldas Active 98 / 86 40% 1 01.12.2027 -
Yeifer Herrera Leones Active 90 / 104 40% 3 28.11.2027 -
Juan Esteban Gómez Atletico Nacional Active 85 / 85 40% 1 28.11.2027 -
Mathías Bordón Sol de America Active 79 / 85 40% 3 27.11.2027 -
Francisco Salerno Defensores Unidos Active 120 / 120 40% 6 26.11.2027 -
Gali Balanta Deportes Tolima Active 95 / 107 40% 3 25.11.2027 -
Facundo Machado Racing Active 102 / 99 40% 1 25.11.2027 -
Brian Mancini Rampla Juniors Active 94 / 92 40% 4 24.11.2027 -
Iván Chaves Patronato Active 110 / 120 40% 3 24.11.2027 Monitor
Antonio Martínez Cerro Porteno Active 82 / 99 40% 2 23.11.2027 -
Jaime Acosta Barranquilla Active 107 / 102 40% 2 21.11.2027 -
Sebastián Giraldo Depor Active 94 / 87 40% 2 20.11.2027 -
Kevin Morgan Plaza Colonia Active 97 / 119 40% 4 19.11.2027 -
Agustín Mieres Atlanta Active 96 / 96 40% 2 16.11.2027 -
Lautaro Petruchi Gimnasia y Esgrima Active 104 / 120 40% 2 15.11.2027 -
Facundo Vila Estudiantes Active 98 / 116 40% 6 14.11.2027 -
Ramiro Véliz Artigas Active 95 / 84 40% 1 14.11.2027 -
Adrián Acosta Portuguesa Active 82 / 89 40% 2 12.11.2027 -
Santiago Scian Nautico Active 78 / 83 40% 1 04.11.2027 -
Leo Ocampo Los Angeles Football Club Active 83 / 85 40% 1 02.11.2027 -
Jesús Mejía Real Santander Active 94 / 101 40% 1 30.10.2027 -
Santiago Videla Iquique Active 90 / 103 40% 1 14.10.2027 -
Marco Espíndola Real Cartagena Active 97 / 108 40% 1 11.10.2027 -
José Luis Torres Boston River Active 79 / 82 40% 3 10.10.2027 -
Juan Ignacio Blanco Defensor Sporting Active 82 / 83 40% 2 08.10.2027 -
Federico Bonilla River Plate Active 98 / 91 40% 3 04.10.2027 -
Esteban Glellel Quilmes Active 124 / 104 40% 3 29.09.2027 -
Alejandro Amaya Union Magdalena Active 105 / 93 40% 1 28.09.2027 -
Jesús Peralta Olimpia Active 90 / 85 40% 1 22.09.2027 -
Santiago Godoy 12 de Octubre Active 86 / 87 40% 2 21.09.2027 -
Anthony Vilche Colon Active 78 / 97 40% 2 17.09.2027 -
Joel Abraham Boston River Active 84 / 103 40% 2 15.09.2027 -
Alex Mosquera Barranquilla Active 89 / 96 40% 1 15.09.2027 -
Luis Mateus Atletico Bucaramanga Active 79 / 104 40% 2 12.09.2027 -
Jonathan González River Plate Active 99 / 89 40% 1 12.09.2027 -
Edison Gutiérrez Universitario Active 71 / 89 40% 1 06.09.2027 -
César González Queretaro Active 84 / 105 40% 2 05.09.2027 -
Mateo Stefan Cerro Largo Active 76 / 79 40% 3 04.09.2027 -
Lucas Toffoletti Cienciano Active 86 / 88 40% 2 26.08.2027 -
Felipe Bianchi Nacional Active 74 / 82 40% 1 26.08.2027 -
Juan Miguel Betancourth Deportivo Pereira Active 81 / 83 40% 2 25.08.2027 -
Yael Delgado Queretaro Active 71 / 76 40% 1 20.08.2027 -
Roberto Moreno Cruz Azul Active 73 / 78 40% 2 13.08.2027 -
Miguel Silva Carabobo Active 113 / 121 40% 2 11.08.2027 -
Ezequiel Navarro Montoya Atlanta United FC Active 100 / 78 40% 1 08.08.2027 -
Cristian Quiñónes General Caballero Active 81 / 95 40% 2 04.08.2027 -
Fabián Palomino Ayacucho Active 84 / 95 40% 1 03.08.2027 -
Ítalo Sulbarán Mineros de Guayana Active 81 / 80 40% 1 02.08.2027 -
Antonio González Estudiantes de Caracas Active 90 / 84 40% 1 02.08.2027 -
Omar Robles Real Cartagena Active 81 / 88 40% 2 30.07.2027 -
Adrián Csenterics Deportivo Tachira Active 90 / 92 40% 3 26.07.2027 -
Lautaro Bursich Talleres Active 95 / 116 40% 1 23.07.2027 -
Moisés Gallo Aragua Active 106 / 112 40% 4 20.07.2027 -
Gaizka Gómez Wanderers Active 79 / 75 40% 2 19.07.2027 -
Tomás Barbero Defensores Unidos Active 97 / 94 40% 1 15.07.2027 -
Oscar Meza Portuguesa Active 94 / 90 40% 1 13.07.2027 -
Javier Bravo Mineros de Guayana Active 81 / 92 40% 1 13.07.2027 -
Alex Payares Barranquilla Active 93 / 95 40% 1 29.06.2027 -
Yeferson Cordova Llaneros Active 102 / 104 40% 4 27.06.2027 -
Gastón Vega Artigas Active 72 / 93 40% 1 22.06.2027 -
Luis Quintero Deportivo La Guaira Active 98 / 104 40% 1 18.06.2027 -
Ángel Romero Guadalajara Active 95 / 93 40% 1 14.06.2027 -
Tomás Palleres Güemes Active 99 / 106 40% 2 30.05.2027 Needs More Info
César Carrizo Mineros de Guayana Active 104 / 81 40% 2 29.05.2027 -
Jorge Martínez Deportivo Pereira Active 76 / 97 40% 1 25.05.2027 -
Marlon Flórez Estudiantes de Caracas Active 87 / 72 40% 1 20.05.2027 -
Rafael Sánchez Estudiantes de Caracas Active 98 / 98 40% 3 19.05.2027 -
Francisco Mongelos Sportivo Luqueno Active 100 / 90 40% 1 14.05.2027 Needs More Info
Nahuel Manganelli San Martín Active 120 / 102 40% 1 11.05.2027 Needs More Info
Andrés Macea Deportivo Pereira Active 90 / 100 40% 1 22.04.2027 -
Alberto Martínez River Plate Active 86 / 90 40% 1 17.04.2027 -
Nahuel Acosta Progreso Active 101 / 112 40% 2 30.11.2026 -
Santiago Ramírez Deportivo Maldonado Active 96 / 104 40% 3 29.11.2026 -
Ezequiel Almirón Estudiantes Active 123 / 119 40% 1 27.11.2026 -
Franco Suárez Racing Active 100 / 97 40% 1 26.11.2026 -
Nicolás Leites Artigas Active 81 / 84 40% 3 24.11.2026 -
Gerónimo Blanco River Plate Active 74 / 85 40% 1 22.11.2026 -
Juan Mendoza Güemes Active 112 / 105 40% 1 22.11.2026 -
Nicolás Heiz Maipú Active 120 / 113 40% 2 20.11.2026 -
Blas Armoa Gimnasia y Esgrima Active 113 / 106 40% 1 17.11.2026 -
Lucas Pedraza Defensores Unidos Active 108 / 107 40% 1 16.11.2026 -
Emiliano García Uruguay Montevideo Active 98 / 99 40% 2 14.11.2026 -
Ronny Maza Aragua Active 107 / 97 40% 3 14.11.2026 -
Sebastián Camacho Uruguay Montevideo Active 90 / 99 40% 2 12.11.2026 -
Luca Bastilla Nashville SC Active 86 / 113 40% 1 11.11.2026 -
Gianluca Pugliese Güemes Active 115 / 108 40% 1 09.11.2026 -
Nahuel Marzochi Colon Active 102 / 100 40% 3 06.11.2026 -
Luca Franco Arsenal Active 97 / 118 40% 1 06.11.2026 -
Salomon Ramirez Atletico Venezuela Active 97 / 106 40% 1 03.11.2026 -
Lisandro Cabrera Maipú Active 127 / 105 40% 1 31.10.2026 -
Ignacio Pereira Danubio Active 115 / 99 40% 1 25.10.2026 -
Marber Suárez Zulia Active 84 / 98 40% 1 24.10.2026 -
Sebastián Marfort Racing Active 109 / 100 40% 1 20.10.2026 -
Brian González Atenas Active 90 / 91 40% 1 19.10.2026 -
Santiago Herrera Estudiantes de Caracas Active 99 / 80 40% 2 16.10.2026 -
Germán Cervera Alvarado Active 90 / 94 40% 1 16.10.2026 -
Esteban Moreira O'Higgins Active 89 / 89 40% 1 13.10.2026 -
Agustín Juárez Minnesota United FC Active 95 / 97 40% 1 12.10.2026 -
Cristian Lima Uruguay Montevideo Active 90 / 98 40% 1 12.10.2026 -
Walter Domínguez Deportivo Maldonado Active 81 / 104 40% 2 11.10.2026 -
Juan Álvarez Uruguay Montevideo Active 101 / 90 40% 1 07.10.2026 -
Martín Pino Godoy Cruz Active 125 / 102 40% 1 07.10.2026 -
Mauro Martín Progreso Active 115 / 101 40% 1 06.10.2026 -
Renato Alexandrino Oriental Active 100 / 84 40% 1 04.10.2026 -
Sebastián Cocimano Nueva Chicago Active 123 / 128 40% 1 29.09.2026 -
Esteban Rodríguez Uruguay Montevideo Active 88 / 90 40% 1 27.09.2026 -
José Rivas Gamboa Trujillanos Active 100 / 99 40% 2 24.09.2026 -
Rodrigo Muníz Uruguay Montevideo Active 99 / 95 40% 1 23.09.2026 -
Agustín Bianciotti Metropolitanos Active 91 / 88 40% 1 19.09.2026 -
Nahuel Soria Oriental Active 94 / 97 40% 1 18.09.2026 -
Carlos Torres Deportivo Pasto Active 84 / 105 40% 1 14.09.2026 -
Franco Troyansky Audax Italiano Active 116 / 101 40% 2 13.09.2026 -
Jimmy Evans Universidad Catolica Active 100 / 106 40% 1 13.09.2026 -
Nahuel Sena Cerro Active 110 / 97 40% 1 10.09.2026 -
Bruno Scorza La Luz Active 85 / 108 40% 2 31.08.2026 -
Lucas Espinosa Colon Active 92 / 69 40% 1 31.08.2026 -
Juan David Ruiz Leones Active 81 / 77 40% 1 25.08.2026 -
Braian Vargas Cerro Active 100 / 89 40% 1 18.08.2026 -
Kevin Campillay Antofagasta Active 99 / 96 40% 1 17.08.2026 -
Nicolás Sosa La Luz Active 76 / 93 40% 1 16.08.2026 -
Mauricio Liñán Bogota Active 89 / 103 40% 1 15.08.2026 -
Diego Méndez Tacuarembo Active 79 / 91 40% 1 14.08.2026 -
Lucas González Nacional Active 114 / 111 40% 1 13.08.2026 -
Thomas González Cerro Largo Active 80 / 71 40% 1 13.08.2026 -
Junior Paredes Trujillanos Active 106 / 84 40% 1 08.08.2026 -
Franco Pérez Boston River Active 93 / 101 40% 1 01.08.2026 -